Time;durP1;ratioP1;P1;durP2;ratioP2;P2;SDS_P1;SDS_P2;PMS_P1;PMS_P2;Temp;Humidity;BMP_temperature;BMP_pressure;BME280_temperature;BME280_humidity;BME280_pressure;Samples;Min_cycle;Max_cycle;Signal;HPM_P1;HPM_P2
2023/04/05 00:01:06;;;;;;;6.80;3.92;;;;;;;5.96;28.67;101988.94;4998535;28;20704;-68
2023/04/05 00:03:36;;;;;;;7.23;4.33;;;;;;;5.92;29.11;101986.44;5008394;28;20056;-68
2023/04/05 00:06:04;;;;;;;7.20;4.30;;;;;;;5.90;29.01;101988.38;5010520;28;20865;-69
2023/04/05 00:08:32;;;;;;;7.32;4.47;;;;;;;5.86;28.82;101976.78;5008001;28;20060;-68
2023/04/05 00:11:00;;;;;;;7.25;4.18;;;;;;;5.82;29.21;101975.16;5004465;28;20937;-68
2023/04/05 00:13:29;;;;;;;9.32;4.90;;;;;;;5.80;29.08;101984.34;5004493;28;20038;-69
2023/04/05 00:15:59;;;;;;;8.43;4.85;;;;;;;5.77;29.06;101971.81;5014005;28;20132;-69
2023/04/05 00:18:33;;;;;;;7.00;4.20;;;;;;;5.74;29.17;101969.22;5007842;28;20064;-69
2023/04/05 00:21:02;;;;;;;;;;;;;;;5.48;29.84;101978.66;5007521;28;20118;-69
2023/04/05 00:23:36;;;;;;;6.05;3.55;;;;;;;5.64;29.15;101959.78;5015343;28;20615;-68
2023/04/05 00:26:04;;;;;;;6.68;3.92;;;;;;;5.67;29.19;101965.06;5008105;28;20057;-68
2023/04/05 00:28:32;;;;;;;6.82;3.97;;;;;;;5.66;29.46;101957.88;5006584;28;20065;-69
2023/04/05 00:31:00;;;;;;;6.57;3.88;;;;;;;5.64;29.44;101968.81;5010832;28;20056;-68
2023/04/05 00:33:28;;;;;;;7.68;4.38;;;;;;;5.63;29.69;101971.59;5014969;28;20474;-69
2023/04/05 00:35:56;;;;;;;6.45;3.72;;;;;;;5.61;29.40;101966.25;5006336;28;20046;-68
2023/04/05 00:38:25;;;;;;;8.48;4.55;;;;;;;5.62;29.54;101964.44;5008973;28;20049;-68
2023/04/05 00:40:53;;;;;;;6.85;4.40;;;;;;;5.59;29.62;101970.88;5011143;28;20768;-68
2023/04/05 00:43:21;;;;;;;6.72;4.22;;;;;;;5.58;29.62;101969.13;5008283;28;20046;-68
2023/04/05 00:45:49;;;;;;;6.50;4.22;;;;;;;5.57;29.94;101964.63;5010044;28;20533;-69
2023/04/05 00:48:17;;;;;;;6.88;3.80;;;;;;;5.55;29.67;101969.25;5008062;28;20066;-68
2023/04/05 00:50:48;;;;;;;7.45;4.15;;;;;;;5.55;29.64;101961.09;5008574;28;20048;-69
2023/04/05 00:53:19;;;;;;;6.20;4.00;;;;;;;5.55;29.71;101960.22;5003986;28;20077;-68
2023/04/05 00:55:49;;;;;;;6.45;3.88;;;;;;;5.53;29.94;101959.44;5021061;28;20041;-68
2023/04/05 00:58:20;;;;;;;7.03;4.25;;;;;;;5.50;29.73;101952.31;5010581;28;20050;-69
2023/04/05 01:01:00;;;;;;;7.43;3.88;;;;;;;5.51;30.22;101951.38;5019548;28;20049;-68
2023/04/05 01:03:33;;;;;;;6.78;3.90;;;;;;;5.49;30.10;101955.97;5002976;28;21162;-68
2023/04/05 01:06:10;;;;;;;6.35;4.25;;;;;;;5.48;30.32;101959.66;5011942;28;20389;-68
2023/04/05 01:08:45;;;;;;;6.30;3.92;;;;;;;5.48;30.14;101958.78;5004136;28;20469;-68
2023/04/05 01:11:17;;;;;;;7.53;4.07;;;;;;;5.45;30.20;101957.09;5002976;28;20054;-68
2023/04/05 01:13:46;;;;;;;6.82;3.90;;;;;;;5.44;29.87;101960.78;4996867;28;20800;-69
2023/04/05 01:16:14;;;;;;;6.65;4.00;;;;;;;5.43;30.38;101966.28;5006780;28;20484;-69
2023/04/05 01:18:46;;;;;;;7.70;4.05;;;;;;;5.42;30.10;101956.38;5005611;28;20045;-69
2023/04/05 01:21:48;;;;;;;8.52;4.18;;;;;;;5.39;30.62;101943.81;5010722;28;20056;-68
2023/04/05 01:24:29;;;;;;;6.72;4.18;;;;;;;5.39;30.27;101938.38;5017063;28;20053;-68
2023/04/05 01:27:04;;;;;;;6.97;4.47;;;;;;;5.40;30.76;101934.72;4987336;28;20449;-68
2023/04/05 01:29:50;;;;;;;8.20;4.10;;;;;;;5.39;30.65;101932.94;4984329;28;20361;-69
2023/04/05 01:32:39;;;;;;;7.00;4.18;;;;;;;5.36;30.67;101937.66;4981913;28;20061;-69
2023/04/05 01:35:15;;;;;;;7.78;4.85;;;;;;;5.34;30.20;101936.84;4991282;28;20378;-68
2023/04/05 01:37:48;;;;;;;7.45;4.00;;;;;;;5.32;30.52;101927.91;5006570;28;20069;-68
2023/04/05 01:40:16;;;;;;;6.35;3.90;;;;;;;5.32;30.21;101938.75;5023520;28;20052;-68
2023/04/05 01:42:45;;;;;;;7.90;4.00;;;;;;;5.33;30.51;101935.09;5009909;28;20045;-69
2023/04/05 01:45:15;;;;;;;6.25;4.30;;;;;;;5.32;30.46;101928.78;5014911;28;20129;-69
2023/04/05 01:47:42;;;;;;;6.43;4.28;;;;;;;5.30;30.57;101937.00;5004647;28;20137;-68
2023/04/05 01:50:11;;;;;;;6.63;3.97;;;;;;;5.30;30.70;101933.38;5006089;28;20060;-68
2023/04/05 01:52:38;;;;;;;7.93;4.35;;;;;;;5.30;30.50;101919.81;5020230;28;20046;-69
2023/04/05 01:55:07;;;;;;;6.95;4.10;;;;;;;5.31;30.55;101918.88;5012749;28;20052;-68
2023/04/05 01:57:36;;;;;;;7.35;3.97;;;;;;;5.29;30.62;101924.38;4985006;28;20520;-68
2023/04/05 02:00:05;;;;;;;8.30;4.25;;;;;;;5.30;30.99;101919.81;5003969;28;20130;-67
2023/04/05 02:02:40;;;;;;;9.07;4.32;;;;;;;5.30;31.02;101926.13;5010088;28;20045;-68
2023/04/05 02:05:09;;;;;;;7.10;4.70;;;;;;;5.28;30.72;101916.31;5009002;28;20061;-68
2023/04/05 02:07:37;;;;;;;7.18;4.70;;;;;;;5.28;30.72;101914.50;5011302;28;20060;-68
2023/04/05 02:10:06;;;;;;;6.55;4.63;;;;;;;5.26;30.87;101921.81;5009432;28;20501;-68
2023/04/05 02:12:34;;;;;;;8.93;4.50;;;;;;;5.24;30.91;101910.16;4997112;28;20037;-69
2023/04/05 02:15:02;;;;;;;6.47;4.25;;;;;;;5.23;30.96;101918.38;5003865;28;20528;-68
2023/04/05 02:17:32;;;;;;;6.85;4.32;;;;;;;5.22;31.04;101911.16;5003621;28;20148;-68
2023/04/05 02:20:04;;;;;;;7.00;4.30;;;;;;;5.21;31.08;101910.28;5009511;28;20038;-69
2023/04/05 02:22:32;;;;;;;5.78;3.95;;;;;;;5.20;30.99;101908.56;5000278;28;20513;-69
2023/04/05 02:25:02;;;;;;;6.68;3.90;;;;;;;5.20;30.83;101910.41;5019087;28;20037;-69
2023/04/05 02:27:30;;;;;;;6.18;3.90;;;;;;;5.18;31.26;101918.59;5005257;28;20140;-68
2023/04/05 02:29:58;;;;;;;6.85;4.45;;;;;;;5.18;31.34;101917.72;5010440;28;20472;-69
2023/04/05 02:32:25;;;;;;;7.95;4.13;;;;;;;5.16;31.17;101920.47;5011564;28;20058;-68
2023/04/05 02:34:54;;;;;;;6.47;4.07;;;;;;;5.15;31.21;101915.09;5011512;28;20509;-69
2023/04/05 02:37:25;;;;;;;6.68;4.25;;;;;;;5.15;31.47;101916.00;5000923;28;20501;-68
2023/04/05 02:39:54;;;;;;;6.78;4.15;;;;;;;5.13;31.53;101914.31;5008239;28;20247;-68
2023/04/05 02:42:22;;;;;;;8.05;4.63;;;;;;;5.11;31.53;101914.41;5004089;28;20520;-67
2023/04/05 02:44:51;;;;;;;7.07;4.18;;;;;;;5.12;31.11;101923.41;5017778;28;20033;-69
2023/04/05 02:47:21;;;;;;;7.13;4.05;;;;;;;5.08;31.45;101909.09;5016253;28;20042;-67
2023/04/05 02:49:58;;;;;;;7.72;4.20;;;;;;;5.08;31.33;101914.53;4997049;28;20238;-66
2023/04/05 02:52:33;;;;;;;6.93;4.25;;;;;;;5.04;31.56;101915.66;5008071;28;20046;-68
2023/04/05 02:55:01;;;;;;;7.63;4.28;;;;;;;5.04;31.42;101917.47;5006557;28;20046;-67
2023/04/05 02:57:31;;;;;;;7.13;3.90;;;;;;;5.02;31.19;101909.41;5008638;28;20536;-67
2023/04/05 03:00:22;;;;;;;6.82;4.45;;;;;;;5.00;31.46;101913.13;5003792;28;20324;-68
2023/04/05 03:02:51;;;;;;;8.55;4.43;;;;;;;4.98;31.80;101907.78;5005842;28;20548;-67
2023/04/05 03:05:21;;;;;;;6.22;4.18;;;;;;;4.97;31.84;101908.72;5003056;28;20042;-67
2023/04/05 03:07:53;;;;;;;7.83;4.20;;;;;;;4.94;31.54;101917.03;4997202;28;20057;-67
2023/04/05 03:10:28;;;;;;;6.22;4.05;;;;;;;4.92;31.28;101908.06;5008545;28;20622;-67
2023/04/05 03:13:02;;;;;;;8.02;4.05;;;;;;;4.91;31.62;101917.16;5010686;28;20046;-67
2023/04/05 03:15:32;;;;;;;7.85;4.45;;;;;;;4.91;31.63;101906.31;5003875;28;20038;-67
2023/04/05 03:18:05;;;;;;;7.88;4.50;;;;;;;4.88;31.74;101906.47;5005392;28;20041;-67
2023/04/05 03:20:38;;;;;;;7.38;4.65;;;;;;;4.87;31.86;101912.84;5020824;28;20065;-67
2023/04/05 03:23:11;;;;;;;8.77;4.43;;;;;;;4.85;31.98;101903.91;5000336;28;20064;-68
2023/04/05 03:25:40;;;;;;;7.43;4.25;;;;;;;4.83;31.53;101908.50;5005086;28;20042;-67
2023/04/05 03:28:09;;;;;;;6.97;4.28;;;;;;;4.80;31.52;101906.81;5003597;28;20477;-67
2023/04/05 03:30:41;;;;;;;7.30;4.50;;;;;;;4.77;31.44;101900.66;5016879;28;20548;-68
2023/04/05 03:33:17;;;;;;;6.60;4.55;;;;;;;4.76;31.45;101896.19;5007238;28;20412;-68
2023/04/05 03:35:48;;;;;;;7.13;4.22;;;;;;;4.75;31.60;101907.97;5000090;28;20145;-69
2023/04/05 03:38:18;;;;;;;6.78;4.32;;;;;;;4.75;31.46;101899.84;5007707;28;20158;-68
2023/04/05 03:41:05;;;;;;;8.02;4.57;;;;;;;4.69;31.58;101903.75;5003564;28;20042;-67
2023/04/05 03:43:34;;;;;;;7.07;4.20;;;;;;;4.69;31.80;101894.72;5019029;28;20052;-67
2023/04/05 03:46:02;;;;;;;8.70;5.13;;;;;;;4.67;32.05;101893.91;5005119;28;20042;-67
2023/04/05 03:48:31;;;;;;;8.52;4.80;;;;;;;4.64;31.97;101894.91;5009742;28;20037;-67
2023/04/05 03:50:59;;;;;;;7.30;4.80;;;;;;;4.63;31.83;101886.88;5014496;28;20037;-67
2023/04/05 03:53:28;;;;;;;8.35;4.55;;;;;;;4.62;31.98;101886.00;5008043;28;20230;-68
2023/04/05 03:55:57;;;;;;;7.28;4.50;;;;;;;4.58;31.94;101889.78;5046685;23;20103;-82
2023/04/05 03:58:40;;;;;;;7.47;4.85;;;;;;;4.52;32.04;101884.66;5048334;28;20168;-82
2023/04/05 04:01:09;;;;;;;6.18;4.10;;;;;;;4.52;32.17;101887.38;5037201;28;20033;-82
2023/04/05 04:03:38;;;;;;;7.00;4.25;;;;;;;4.52;31.95;101887.38;5039692;28;20500;-82
2023/04/05 04:06:07;;;;;;;7.28;5.10;;;;;;;4.50;32.06;101886.53;5042206;28;20674;-82
2023/04/05 04:08:36;;;;;;;8.70;4.53;;;;;;;4.47;32.20;101887.56;5058811;28;20041;-81
2023/04/05 04:11:05;;;;;;;7.55;4.72;;;;;;;4.44;32.04;101887.72;5057002;28;21607;-80
2023/04/05 04:13:39;;;;;;;7.57;4.43;;;;;;;4.42;32.21;101886.03;5059967;28;20149;-81
2023/04/05 04:16:18;;;;;;;7.18;4.20;;;;;;;4.39;32.07;101895.16;5056070;28;20102;-80
2023/04/05 04:18:55;;;;;;;8.90;4.72;;;;;;;4.37;31.97;101888.94;5050847;28;20139;-81
2023/04/05 04:21:50;;;;;;;6.82;4.40;;;;;;;4.34;32.19;101889.09;5056310;28;20048;-81
2023/04/05 04:24:39;;;;;;;6.30;4.15;;;;;;;4.31;32.19;101891.91;5062442;28;20060;-79
2023/04/05 04:27:28;;;;;;;8.27;4.28;;;;;;;4.29;32.06;101892.97;5034421;28;20057;-80
2023/04/05 04:30:15;;;;;;;8.88;4.47;;;;;;;4.27;32.00;101893.03;5031131;28;20068;-80
2023/04/05 04:33:07;;;;;;;7.85;4.90;;;;;;;4.25;32.37;101888.59;5052397;28;20060;-80
2023/04/05 04:35:37;;;;;;;7.65;4.45;;;;;;;4.21;32.19;101890.59;5052972;28;20120;-81
2023/04/05 04:38:33;;;;;;;10.40;4.88;;;;;;;4.18;32.39;101877.16;5030880;28;20049;-81
2023/04/05 04:41:21;;;;;;;9.05;5.28;;;;;;;4.17;32.19;101891.66;5055383;28;20109;-81
2023/04/05 04:44:13;;;;;;;7.88;4.78;;;;;;;4.14;32.17;101880.97;5062902;28;20115;-81
2023/04/05 04:47:01;;;;;;;8.65;4.80;;;;;;;4.09;32.18;101892.00;5076375;28;20110;-80
2023/04/05 04:49:46;;;;;;;8.25;4.78;;;;;;;4.10;32.31;101891.06;5055843;28;20041;-82
2023/04/05 04:52:14;;;;;;;8.45;4.70;;;;;;;4.08;32.63;101889.34;5060696;28;20049;-81
2023/04/05 04:54:42;;;;;;;6.78;4.57;;;;;;;4.06;32.54;101888.53;5055644;28;20049;-81
2023/04/05 04:57:11;;;;;;;7.25;4.90;;;;;;;4.05;32.62;101893.09;5050623;28;20049;-82
2023/04/05 04:59:39;;;;;;;7.65;5.10;;;;;;;4.02;32.46;101895.06;5031861;28;20049;-82
2023/04/05 05:02:09;;;;;;;8.85;4.88;;;;;;;4.00;32.41;101894.22;5056940;28;20045;-81
2023/04/05 05:04:40;;;;;;;7.30;4.57;;;;;;;3.97;32.16;101888.97;5051068;28;20053;-81
2023/04/05 05:07:09;;;;;;;6.28;4.32;;;;;;;3.98;32.75;101894.28;5065750;28;20116;-82
2023/04/05 05:09:37;;;;;;;7.63;4.63;;;;;;;3.97;32.58;101899.81;5064530;28;20059;-80
2023/04/05 05:12:05;;;;;;;8.05;4.65;;;;;;;3.95;32.80;101891.75;5049999;28;20045;-82
2023/04/05 05:14:35;;;;;;;8.43;4.70;;;;;;;3.93;32.88;101888.22;5051851;28;20048;-80
2023/04/05 05:17:05;;;;;;;8.85;5.03;;;;;;;3.91;32.87;101890.09;5048815;28;20051;-80
2023/04/05 05:19:33;;;;;;;8.32;5.10;;;;;;;3.92;32.87;101891.84;5051059;28;20052;-82
2023/04/05 05:22:00;;;;;;;8.55;5.35;;;;;;;3.89;32.82;101892.00;5050646;28;20484;-81
2023/04/05 05:24:28;;;;;;;9.70;5.18;;;;;;;3.90;32.59;101898.28;5052282;28;20053;-80
2023/04/05 05:26:56;;;;;;;10.75;4.90;;;;;;;3.89;32.74;101891.13;5051794;28;20049;-82
2023/04/05 05:29:24;;;;;;;8.23;5.43;;;;;;;3.86;32.71;101892.13;5053839;28;20045;-81
2023/04/05 05:31:53;;;;;;;9.38;5.47;;;;;;;3.88;33.07;101895.66;5058582;28;20106;-81
2023/04/05 05:34:21;;;;;;;10.82;5.43;;;;;;;3.87;33.09;101893.03;5053652;28;20499;-81
2023/04/05 05:36:54;;;;;;;8.90;5.68;;;;;;;3.87;32.93;101885.78;5053686;28;20095;-80
2023/04/05 05:39:23;;;;;;;9.98;5.65;;;;;;;3.87;33.13;101885.78;5053732;28;20136;-81
2023/04/05 05:41:51;;;;;;;10.75;5.97;;;;;;;3.88;33.07;101892.06;5056495;28;20488;-82
2023/04/05 05:44:19;;;;;;;10.25;5.85;;;;;;;3.89;33.13;101892.00;5052967;28;20060;-82
2023/04/05 05:46:46;;;;;;;10.88;6.03;;;;;;;3.89;33.14;101897.44;5069274;28;20053;-82
2023/04/05 05:49:16;;;;;;;10.30;5.68;;;;;;;3.93;33.64;101892.75;5054584;28;20167;-81
2023/04/05 05:51:45;;;;;;;9.68;5.43;;;;;;;3.93;33.56;101892.75;5048929;28;20038;-80
2023/04/05 05:54:13;;;;;;;9.80;5.68;;;;;;;3.95;33.30;101888.16;5033011;28;20471;-82
2023/04/05 05:56:41;;;;;;;10.68;5.38;;;;;;;3.98;33.50;101897.00;5042079;28;20037;-81
2023/04/05 05:59:09;;;;;;;8.55;5.65;;;;;;;4.00;33.78;101894.22;5050858;28;20055;-82
2023/04/05 06:01:41;;;;;;;10.48;6.10;;;;;;;4.04;33.72;101901.28;5052902;28;20503;-80
2023/04/05 06:04:09;;;;;;;8.73;5.60;;;;;;;4.08;33.62;101905.63;5066897;28;20071;-82
2023/04/05 06:06:39;;;;;;;9.90;5.88;;;;;;;4.12;33.76;101899.13;5046667;28;20051;-81
2023/04/05 06:09:07;;;;;;;8.80;5.43;;;;;;;4.15;34.04;101907.09;5063781;28;20098;-80
2023/04/05 06:11:35;;;;;;;8.95;5.20;;;;;;;4.21;33.93;101904.16;5045279;28;20053;-79
2023/04/05 06:14:10;;;;;;;8.32;5.22;;;;;;;4.27;34.17;101898.44;5062383;28;20099;-79
2023/04/05 06:16:38;;;;;;;9.85;5.75;;;;;;;4.34;34.02;101899.91;5047432;28;20060;-81
2023/04/05 06:19:06;;;;;;;9.50;5.22;;;;;;;4.43;34.18;101896.78;5065034;28;20045;-80
2023/04/05 06:21:34;;;;;;;8.70;5.63;;;;;;;4.53;34.25;101894.56;5045716;28;20049;-81
2023/04/05 06:24:03;;;;;;;7.57;4.85;;;;;;;4.66;34.05;101900.28;5049331;28;20056;-82
2023/04/05 06:26:32;;;;;;;7.78;4.60;;;;;;;4.78;33.66;101889.75;5065058;28;20041;-81
2023/04/05 06:28:59;;;;;;;7.88;4.50;;;;;;;4.89;33.60;101895.53;5060419;28;20045;-82
2023/04/05 06:31:31;;;;;;;8.73;4.65;;;;;;;5.04;33.33;101893.94;5058907;28;20145;-81
2023/04/05 06:33:59;;;;;;;6.97;4.25;;;;;;;5.16;33.47;101887.91;5076423;28;20041;-81
2023/04/05 06:36:30;;;;;;;9.02;4.38;;;;;;;5.27;33.52;101891.00;5059251;28;20053;-84
2023/04/05 06:38:58;;;;;;;6.20;4.03;;;;;;;5.40;33.06;101884.97;5067553;28;20048;-83
2023/04/05 06:41:28;;;;;;;7.18;4.28;;;;;;;5.55;32.76;101897.78;5069461;28;20075;-83
2023/04/05 06:43:56;;;;;;;6.22;4.00;;;;;;;5.67;33.01;101887.19;5069054;28;20017;-83
2023/04/05 06:46:25;;;;;;;6.68;4.10;;;;;;;5.85;32.82;101892.63;5058151;28;20065;-84
2023/04/05 06:48:53;;;;;;;6.20;4.03;;;;;;;6.02;32.71;101885.38;5065009;28;20094;-82
2023/04/05 06:51:21;;;;;;;6.68;3.83;;;;;;;6.18;32.79;101898.16;5059259;28;20045;-83
2023/04/05 06:53:49;;;;;;;6.75;4.00;;;;;;;6.30;32.72;101886.59;5060073;28;20060;-82
2023/04/05 06:56:17;;;;;;;6.40;3.67;;;;;;;6.47;32.33;101894.75;5056961;28;20056;-83
2023/04/05 06:58:46;;;;;;;6.07;4.10;;;;;;;6.63;32.76;101894.78;5062654;28;20037;-82
2023/04/05 07:01:16;;;;;;;5.10;3.65;;;;;;;6.79;32.77;101899.34;5058383;28;20167;-80
2023/04/05 07:03:44;;;;;;;6.32;4.05;;;;;;;6.91;32.59;101889.63;5057449;28;20037;-80
2023/04/05 07:06:12;;;;;;;6.55;4.07;;;;;;;7.12;32.35;101895.69;5050182;28;20055;-80
2023/04/05 07:08:40;;;;;;;7.07;3.97;;;;;;;7.28;32.29;101896.56;5051198;28;20513;-80
2023/04/05 07:11:08;;;;;;;5.55;3.60;;;;;;;7.45;32.27;101880.13;5057757;28;20037;-81
2023/04/05 07:13:36;;;;;;;5.70;3.72;;;;;;;7.63;32.57;101869.13;5058087;28;20583;-83
2023/04/05 07:16:06;;;;;;;5.80;3.92;;;;;;;7.87;31.93;101874.00;5055997;28;20048;-80
2023/04/05 07:18:34;;;;;;;6.55;3.72;;;;;;;8.12;31.84;101876.09;5060621;28;20076;-81
2023/04/05 07:21:03;;;;;;;4.63;3.50;;;;;;;8.44;32.37;101874.13;5071101;28;20048;-81
2023/04/05 07:23:31;;;;;;;5.03;3.65;;;;;;;8.77;32.19;101879.31;5072034;28;20090;-81
2023/04/05 07:26:03;;;;;;;4.93;3.25;;;;;;;9.13;31.63;101867.00;5066419;28;20071;-81
2023/04/05 07:28:32;;;;;;;5.07;3.40;;;;;;;9.44;31.62;101875.81;5060915;28;20045;-81
2023/04/05 07:31:01;;;;;;;5.40;3.40;;;;;;;9.84;30.91;101878.59;5073958;28;20176;-81
2023/04/05 07:33:30;;;;;;;4.57;3.03;;;;;;;10.16;30.86;101877.25;5062625;28;20044;-81
2023/04/05 07:35:58;;;;;;;4.88;3.30;;;;;;;10.45;30.31;101869.72;5032011;28;20045;-83
2023/04/05 07:38:27;;;;;;;5.38;3.50;;;;;;;10.74;29.72;101878.59;5067004;28;20143;-84
2023/04/05 07:40:56;;;;;;;5.43;3.53;;;;;;;10.96;29.25;101872.47;5053813;28;20048;-81
2023/04/05 07:43:24;;;;;;;4.80;3.60;;;;;;;11.15;28.73;101869.22;5058075;28;20041;-82
2023/04/05 07:45:53;;;;;;;5.13;3.42;;;;;;;11.28;28.08;101862.75;5059006;28;20068;-82
2023/04/05 07:48:21;;;;;;;5.85;3.65;;;;;;;11.44;28.22;101872.53;5064418;28;20075;-82
2023/04/05 07:50:51;;;;;;;5.68;3.50;;;;;;;11.53;27.22;101870.00;5053543;28;20045;-82
2023/04/05 07:53:20;;;;;;;5.60;3.42;;;;;;;11.60;27.50;101865.78;5055473;28;20059;-82
2023/04/05 07:55:48;;;;;;;5.65;3.75;;;;;;;11.64;26.75;101877.41;5057283;28;20033;-82
2023/04/05 07:58:16;;;;;;;6.05;3.47;;;;;;;11.69;26.71;101878.84;5055991;28;20136;-82
2023/04/05 08:00:44;;;;;;;5.05;3.90;;;;;;;11.72;26.62;101875.84;5059893;28;20499;-82
2023/04/05 08:03:12;;;;;;;4.78;3.40;;;;;;;11.74;26.45;101867.50;5065562;28;20041;-81
2023/04/05 08:05:40;;;;;;;5.32;3.80;;;;;;;11.77;26.31;101872.75;5050355;28;20054;-81
2023/04/05 08:08:10;;;;;;;4.20;3.35;;;;;;;11.80;26.31;101872.50;5049979;28;20061;-83
2023/04/05 08:10:39;;;;;;;5.32;3.08;;;;;;;11.81;26.21;101874.25;5054696;28;20049;-83
2023/04/05 08:13:07;;;;;;;5.50;3.67;;;;;;;11.80;26.15;101871.66;5063158;28;20045;-83
2023/04/05 08:15:35;;;;;;;5.85;3.30;;;;;;;11.80;25.70;101874.41;5055215;28;20091;-82
2023/04/05 08:18:03;;;;;;;5.22;3.50;;;;;;;11.79;25.82;101880.88;5059358;28;20100;-82
2023/04/05 08:20:31;;;;;;;6.05;3.70;;;;;;;11.77;25.28;101878.25;5054950;28;20512;-80
2023/04/05 08:22:59;;;;;;;5.05;3.75;;;;;;;11.74;25.25;101884.81;5063667;28;20041;-82
2023/04/05 08:25:28;;;;;;;5.32;3.80;;;;;;;11.74;25.12;101878.47;5055496;28;20048;-81
2023/04/05 08:27:56;;;;;;;6.05;3.80;;;;;;;11.65;24.97;101882.78;5055615;28;20334;-82
2023/04/05 08:30:24;;;;;;;5.00;3.83;;;;;;;11.60;25.13;101870.38;5052853;28;20045;-80
2023/04/05 08:32:52;;;;;;;5.15;3.42;;;;;;;11.54;25.22;101871.75;5060263;28;20037;-83
2023/04/05 08:35:20;;;;;;;5.28;3.90;;;;;;;11.51;25.47;101873.81;5056755;28;20076;-80
2023/04/05 08:37:47;;;;;;;5.07;3.50;;;;;;;11.46;25.47;101868.72;5055732;28;20045;-82
2023/04/05 08:40:16;;;;;;;5.97;4.25;;;;;;;11.43;25.73;101874.41;5055842;28;20041;-81
2023/04/05 08:42:52;;;;;;;6.70;3.88;;;;;;;11.43;25.18;101871.66;5073264;28;20520;-82
2023/04/05 08:45:22;;;;;;;4.63;3.80;;;;;;;11.43;25.92;101874.41;5057043;28;20054;-81
2023/04/05 08:47:57;;;;;;;5.32;3.60;;;;;;;11.43;25.89;101868.94;5076902;28;20069;-82
2023/04/05 08:50:26;;;;;;;6.30;3.78;;;;;;;11.44;25.73;101878.03;5054283;28;20045;-81
2023/04/05 08:52:54;;;;;;;6.68;3.88;;;;;;;11.47;25.27;101866.84;5065996;28;20023;-82
2023/04/05 08:55:22;;;;;;;5.15;3.65;;;;;;;11.50;25.94;101866.59;5065400;28;20044;-82
2023/04/05 08:57:58;;;;;;;6.40;3.63;;;;;;;11.54;25.08;101865.38;5066768;28;20045;-82
2023/04/05 09:00:27;;;;;;;5.28;3.67;;;;;;;11.59;25.82;101863.16;5056400;28;20052;-81
2023/04/05 09:02:58;;;;;;;7.72;4.20;;;;;;;11.65;25.96;101869.06;5060153;28;20419;-82
2023/04/05 09:05:44;;;;;;;5.85;3.70;;;;;;;11.69;25.93;101865.13;5055200;28;20057;-82
2023/04/05 09:08:12;;;;;;;5.40;3.75;;;;;;;11.73;25.51;101855.66;5040606;28;20038;-82
2023/04/05 09:10:41;;;;;;;6.25;3.88;;;;;;;11.78;25.79;101852.56;5037208;28;20064;-81
2023/04/05 09:13:10;;;;;;;6.25;4.35;;;;;;;11.87;25.64;101860.09;5041383;28;20581;-82
2023/04/05 09:15:39;;;;;;;6.35;3.75;;;;;;;11.91;25.34;101860.72;5037809;28;20347;-83
2023/04/05 09:18:07;;;;;;;5.32;3.90;;;;;;;11.95;25.44;101859.50;5065226;28;20083;-82
2023/04/05 09:20:56;;;;;;;6.18;4.15;;;;;;;12.00;24.87;101862.75;5068240;28;20053;-83
2023/04/05 09:23:25;;;;;;;5.10;4.25;;;;;;;11.98;24.96;101857.38;5075344;28;20375;-82
2023/04/05 09:25:52;;;;;;;5.55;4.13;;;;;;;12.04;24.73;101854.16;5062550;28;20049;-82
2023/04/05 09:28:22;;;;;;;5.70;4.00;;;;;;;12.11;25.18;101857.31;5064423;28;20527;-82
2023/04/05 09:30:50;;;;;;;5.00;3.55;;;;;;;12.13;25.40;101850.69;5067513;28;20056;-83
2023/04/05 09:33:20;;;;;;;5.40;3.97;;;;;;;12.17;25.22;101851.31;5070364;28;20048;-82
2023/04/05 09:35:50;;;;;;;5.47;4.10;;;;;;;12.25;25.24;101851.59;5055447;28;20049;-82
2023/04/05 09:38:20;;;;;;;6.05;3.70;;;;;;;12.28;25.47;101843.13;5073990;28;20049;-83
2023/04/05 09:40:50;;;;;;;6.40;4.25;;;;;;;12.34;24.68;101848.13;5059118;28;20071;-81
2023/04/05 09:43:39;;;;;;;6.22;4.10;;;;;;;12.41;24.10;101846.63;5057685;28;20217;-82
2023/04/05 09:46:07;;;;;;;;;;;;;;;12.17;25.02;101840.34;5052827;28;20110;-82
2023/04/05 09:48:48;;;;;;;4.85;3.22;;;;;;;12.49;24.82;101844.16;5053412;28;20353;-82
2023/04/05 09:51:17;;;;;;;4.93;3.28;;;;;;;12.57;24.97;101846.28;5050517;28;20080;-82
2023/04/05 09:53:58;;;;;;;5.05;3.50;;;;;;;12.68;24.78;101845.44;5053852;28;20045;-82
2023/04/05 09:56:27;;;;;;;5.25;3.80;;;;;;;12.73;25.38;101846.81;5074892;28;20411;-82
2023/04/05 09:59:01;;;;;;;5.93;3.60;;;;;;;12.85;24.88;101845.84;5053318;28;20044;-82
2023/04/05 10:01:31;;;;;;;5.00;3.50;;;;;;;12.91;25.31;101844.44;5056109;28;20057;-82
2023/04/05 10:04:00;;;;;;;5.20;3.67;;;;;;;13.01;25.17;101844.56;5052773;28;20115;-82
2023/04/05 10:06:46;;;;;;;4.32;3.40;;;;;;;13.10;23.96;101835.56;5054912;28;20080;-82
2023/04/05 10:09:14;;;;;;;5.55;3.83;;;;;;;13.16;24.38;101826.81;5061164;28;20069;-82
2023/04/05 10:11:43;;;;;;;4.70;3.20;;;;;;;13.29;24.55;101829.38;5062271;28;20047;-82
2023/04/05 10:14:13;;;;;;;4.80;3.47;;;;;;;13.37;24.82;101830.50;5068709;28;20025;-81
2023/04/05 10:16:47;;;;;;;4.43;3.13;;;;;;;13.49;24.21;101836.84;5059114;28;20053;-82
2023/04/05 10:19:25;;;;;;;5.75;3.42;;;;;;;13.57;23.40;101823.34;5052229;28;20055;-80
2023/04/05 10:21:54;;;;;;;4.82;3.90;;;;;;;13.61;23.65;101828.44;5057640;28;20049;-82
2023/04/05 10:24:35;;;;;;;4.90;3.35;;;;;;;13.66;22.96;101821.69;5060214;28;20032;-80
2023/04/05 10:27:08;;;;;;;4.75;3.42;;;;;;;13.69;23.75;101816.81;5062282;28;20041;-82
2023/04/05 10:29:51;;;;;;;6.00;3.70;;;;;;;13.73;22.91;101811.91;5054128;28;20120;-80
2023/04/05 10:32:28;;;;;;;5.10;3.33;;;;;;;13.80;23.13;101818.63;5063352;28;20053;-81
2023/04/05 10:35:07;;;;;;;5.82;3.67;;;;;;;13.83;23.36;101815.63;5054540;28;20041;-82
2023/04/05 10:37:47;;;;;;;4.78;3.35;;;;;;;13.88;23.16;101807.81;5055545;28;20055;-82
2023/04/05 10:40:18;;;;;;;4.40;3.30;;;;;;;13.93;23.55;101805.56;5072174;28;20411;-82
2023/04/05 10:42:48;;;;;;;4.65;3.40;;;;;;;13.98;23.72;101808.78;5054667;28;20050;-82
2023/04/05 10:45:21;;;;;;;6.05;3.70;;;;;;;14.04;22.97;101808.22;5053612;28;20045;-81
2023/04/05 10:47:55;;;;;;;4.75;3.60;;;;;;;14.10;22.57;101806.84;5068160;28;20210;-82
2023/04/05 10:50:24;;;;;;;4.55;3.28;;;;;;;14.12;23.38;101804.81;5066863;28;20136;-82
2023/04/05 10:52:53;;;;;;;5.78;3.85;;;;;;;14.13;22.60;101795.53;5054113;28;20052;-82
2023/04/05 10:55:21;;;;;;;4.50;3.33;;;;;;;14.17;22.39;101795.16;5061970;28;20099;-83
2023/04/05 10:57:51;;;;;;;5.45;3.85;;;;;;;14.19;22.10;101798.63;5054402;28;20069;-82
2023/04/05 11:00:54;;;;;;;6.40;4.20;;;;;;;14.15;21.54;101788.03;5048652;28;20098;-82
2023/04/05 11:03:57;;;;;;;5.47;4.30;;;;;;;14.08;21.01;101790.47;5071851;28;20060;-82
2023/04/05 11:06:48;;;;;;;5.78;3.80;;;;;;;14.08;21.12;101789.59;5052100;28;20559;-83
2023/04/05 11:13:09;;;;;;;5.43;3.50;;;;;;;13.91;21.58;101780.06;5010256;28;20040;-83
2023/04/05 11:15:39;;;;;;;5.95;3.42;;;;;;;13.86;22.36;101777.69;5070703;28;20064;-83
2023/04/05 11:18:11;;;;;;;5.38;3.40;;;;;;;13.85;21.49;101775.09;5039380;28;20311;-83
2023/04/05 11:20:47;;;;;;;5.03;3.17;;;;;;;13.84;21.70;101778.84;5040799;28;20374;-82
2023/04/05 11:23:17;;;;;;;5.45;3.25;;;;;;;13.83;22.56;101771.59;5044028;28;20103;-82
2023/04/05 11:25:51;;;;;;;4.78;3.35;;;;;;;13.87;21.30;101770.31;5038992;28;20476;-82
2023/04/05 11:28:30;;;;;;;5.28;3.42;;;;;;;13.89;21.67;101771.03;5069599;28;20443;-81
2023/04/05 11:31:12;;;;;;;4.72;3.63;;;;;;;13.91;21.47;101769.03;5070582;28;20056;-81
2023/04/05 11:34:09;;;;;;;6.05;3.95;;;;;;;13.89;21.84;101754.53;5058028;28;20067;-82
2023/04/05 11:36:40;;;;;;;5.47;3.72;;;;;;;13.96;22.32;101766.75;5054069;28;20053;-81
2023/04/05 11:39:28;;;;;;;6.32;4.18;;;;;;;13.96;21.69;101764.88;5054937;28;20459;-81
2023/04/05 11:42:07;;;;;;;5.05;3.95;;;;;;;14.01;21.09;101761.72;5054682;28;20044;-81
2023/04/05 11:44:43;;;;;;;4.88;3.85;;;;;;;14.04;21.36;101757.81;5052257;28;20049;-82
2023/04/05 11:47:12;;;;;;;6.18;4.03;;;;;;;14.01;21.68;101750.72;5054200;28;20079;-81
2023/04/05 11:49:42;;;;;;;7.47;3.85;;;;;;;14.09;21.52;101755.56;5058079;28;20053;-81
2023/04/05 11:52:11;;;;;;;5.15;3.70;;;;;;;14.10;21.88;101754.53;5058416;28;20061;-81
2023/04/05 11:54:44;;;;;;;4.75;3.53;;;;;;;14.11;22.07;101751.63;5056315;28;20083;-81
2023/04/05 11:57:14;;;;;;;5.03;3.53;;;;;;;14.17;21.67;101744.72;5039876;28;20147;-81